createdAt,value
2022-08-29T00:00:16.580Z,20.16
2022-08-29T00:05:42.834Z,20.15
2022-08-29T00:10:56.297Z,20.12
2022-08-29T00:16:02.334Z,20.08
2022-08-29T00:21:08.810Z,20.04
2022-08-29T00:26:15.044Z,20.03
2022-08-29T00:31:21.029Z,20.04
2022-08-29T00:36:27.101Z,20.00
2022-08-29T00:41:36.500Z,19.99
2022-08-29T00:46:54.247Z,20.01
2022-08-29T00:52:05.439Z,20.03
2022-08-29T00:57:11.917Z,19.95
2022-08-29T01:02:19.175Z,19.92
2022-08-29T01:07:25.280Z,19.91
2022-08-29T01:12:31.375Z,19.92
2022-08-29T01:17:43.933Z,19.94
2022-08-29T01:22:59.051Z,19.91
2022-08-29T01:28:12.031Z,19.97
2022-08-29T01:33:18.039Z,19.96
2022-08-29T01:38:29.967Z,19.97
2022-08-29T01:43:42.412Z,19.94
2022-08-29T01:48:48.989Z,19.92
2022-08-29T01:53:55.265Z,19.89
2022-08-29T01:59:03.726Z,19.86
2022-08-29T02:04:10.030Z,19.79
2022-08-29T02:09:16.070Z,19.77
2022-08-29T02:14:23.585Z,19.74
2022-08-29T02:19:29.543Z,19.71
2022-08-29T02:24:35.924Z,19.65
2022-08-29T02:29:42.117Z,19.56
2022-08-29T02:34:48.546Z,19.51
2022-08-29T02:39:54.831Z,19.54
2022-08-29T02:45:01.258Z,19.52
2022-08-29T02:50:09.664Z,19.57
2022-08-29T02:55:18.329Z,19.62
2022-08-29T03:00:27.386Z,19.69
2022-08-29T03:06:53.654Z,19.85
2022-08-29T03:11:59.571Z,19.92
2022-08-29T03:17:05.809Z,19.99
2022-08-29T03:22:11.849Z,20.01
2022-08-29T03:27:19.088Z,20.08
2022-08-29T03:32:25.840Z,20.13
2022-08-29T03:37:32.727Z,20.19
2022-08-29T03:42:38.893Z,20.27
2022-08-29T03:47:44.899Z,20.31
2022-08-29T03:52:51.531Z,20.34
2022-08-29T03:57:57.665Z,20.35
2022-08-29T04:03:03.912Z,20.37
2022-08-29T04:08:09.985Z,20.41
2022-08-29T04:13:15.883Z,20.46
2022-08-29T04:18:22.555Z,20.49
2022-08-29T04:23:28.423Z,20.52
2022-08-29T04:28:34.402Z,20.53
2022-08-29T04:33:41.165Z,20.55
2022-08-29T04:38:47.066Z,20.56
2022-08-29T04:43:53.547Z,20.55
2022-08-29T04:49:03.969Z,20.56
2022-08-29T04:54:10.474Z,20.54
2022-08-29T04:59:17.105Z,20.56
2022-08-29T05:04:25.278Z,20.58
2022-08-29T05:09:31.213Z,20.54
2022-08-29T05:14:51.496Z,20.47
2022-08-29T05:20:39.971Z,20.44
2022-08-29T05:32:18.519Z,20.45
2022-08-29T05:38:19.429Z,20.37
2022-08-29T05:43:54.468Z,20.23
2022-08-29T06:01:08.025Z,20.00
2022-08-29T06:06:14.122Z,20.02
2022-08-29T06:11:22.613Z,20.05
2022-08-29T06:16:29.857Z,20.04
2022-08-29T06:21:35.861Z,20.11
2022-08-29T06:26:42.869Z,20.20
2022-08-29T06:32:07.325Z,20.54
2022-08-29T06:37:13.481Z,21.29
2022-08-29T06:42:23.913Z,21.61
2022-08-29T06:47:34.555Z,21.69
2022-08-29T06:52:40.553Z,21.59
2022-08-29T06:57:47.034Z,21.69
2022-08-29T07:02:53.780Z,21.91
2022-08-29T07:07:59.745Z,22.04
2022-08-29T07:13:05.597Z,22.08
2022-08-29T07:18:11.935Z,22.27
2022-08-29T07:23:18.263Z,22.35
2022-08-29T07:28:24.190Z,22.47
2022-08-29T07:33:30.166Z,22.48
2022-08-29T07:38:36.541Z,22.43
2022-08-29T07:43:43.449Z,22.12
2022-08-29T07:48:49.530Z,21.83
2022-08-29T07:53:56.812Z,21.55
2022-08-29T07:59:02.666Z,21.35
2022-08-29T08:04:11.045Z,21.48
2022-08-29T08:09:17.009Z,21.49
2022-08-29T08:14:22.888Z,21.43
2022-08-29T08:19:40.865Z,21.43
2022-08-29T08:24:48.557Z,21.94
2022-08-29T08:29:55.557Z,22.53
2022-08-29T08:35:04.529Z,23.70
2022-08-29T08:40:19.816Z,24.05
2022-08-29T08:45:33.476Z,24.08
2022-08-29T08:50:54.513Z,23.84
2022-08-29T08:56:04.873Z,23.35
2022-08-29T09:01:18.758Z,22.92
2022-08-29T09:06:37.887Z,22.89
2022-08-29T09:11:56.362Z,24.78
2022-08-29T09:17:04.108Z,25.97
2022-08-29T09:22:16.595Z,25.51
2022-08-29T09:27:24.278Z,24.58
2022-08-29T09:32:30.198Z,24.51
2022-08-29T09:37:36.915Z,25.06
2022-08-29T09:42:49.731Z,24.85
2022-08-29T09:48:14.393Z,24.46
2022-08-29T09:53:25.478Z,25.03
2022-08-29T09:58:39.929Z,27.09
2022-08-29T10:03:58.577Z,26.88
2022-08-29T10:09:09.175Z,26.43
2022-08-29T10:14:23.511Z,26.18
2022-08-29T10:19:33.129Z,26.89
2022-08-29T10:24:57.826Z,26.70
2022-08-29T10:30:12.508Z,26.35
2022-08-29T10:35:24.469Z,27.92
2022-08-29T10:40:43.226Z,29.49
2022-08-29T10:46:04.070Z,28.58
2022-08-29T10:51:21.558Z,27.39
2022-08-29T10:56:33.007Z,27.21
2022-08-29T11:01:43.988Z,26.48
2022-08-29T11:06:58.195Z,25.99
2022-08-29T11:12:12.510Z,25.46
2022-08-29T11:17:26.338Z,25.59
2022-08-29T11:22:37.693Z,26.33
2022-08-29T11:27:53.604Z,27.44
2022-08-29T11:33:14.888Z,28.68
2022-08-29T11:38:49.780Z,29.63
2022-08-29T11:44:05.541Z,30.21
2022-08-29T11:49:41.977Z,30.77
2022-08-29T11:55:09.861Z,31.14
2022-08-29T12:00:42.669Z,31.12
2022-08-29T12:06:01.716Z,31.11
2022-08-29T12:11:07.724Z,30.90
2022-08-29T12:16:15.687Z,30.29
2022-08-29T12:21:47.177Z,29.64
2022-08-29T12:26:54.835Z,29.38
2022-08-29T12:32:43.226Z,29.78
2022-08-29T12:38:01.469Z,29.09
2022-08-29T12:43:29.446Z,28.41
2022-08-29T12:48:41.158Z,28.29
2022-08-29T12:53:50.725Z,27.77
2022-08-29T12:58:58.993Z,27.81
2022-08-29T13:04:13.510Z,28.31
2022-08-29T13:09:28.254Z,28.37
2022-08-29T13:14:36.118Z,28.46
2022-08-29T13:20:04.647Z,28.73
2022-08-29T13:25:10.791Z,28.78
2022-08-29T13:30:24.755Z,28.70
2022-08-29T13:35:33.053Z,27.84
2022-08-29T13:40:45.638Z,27.22
2022-08-29T13:46:00.823Z,27.47
2022-08-29T13:51:07.272Z,27.80
2022-08-29T13:56:23.235Z,28.11
2022-08-29T14:01:29.842Z,28.17
2022-08-29T14:06:36.726Z,28.19
2022-08-29T14:11:45.242Z,27.90
2022-08-29T14:16:53.688Z,27.56
2022-08-29T14:22:00.653Z,27.53
2022-08-29T14:27:08.521Z,27.27
2022-08-29T14:32:14.444Z,27.10
2022-08-29T14:37:20.924Z,27.07
2022-08-29T14:42:27.168Z,26.90
2022-08-29T14:47:33.563Z,26.66
2022-08-29T14:52:39.739Z,26.10
2022-08-29T14:57:45.653Z,25.80
2022-08-29T15:02:52.411Z,25.69
2022-08-29T15:08:00.720Z,25.45
2022-08-29T15:13:10.486Z,25.22
2022-08-29T15:18:42.788Z,25.04
2022-08-29T15:23:44.686Z,25.04
2022-08-29T15:28:50.626Z,24.80
2022-08-29T15:33:56.534Z,24.62
2022-08-29T15:39:05.820Z,24.45
2022-08-29T15:44:12.063Z,24.23
2022-08-29T15:49:18.743Z,24.08
2022-08-29T15:54:26.001Z,23.85
2022-08-29T15:59:56.720Z,23.64
2022-08-29T16:04:59.984Z,23.47
2022-08-29T16:10:11.149Z,23.33
2022-08-29T16:15:18.297Z,23.16
2022-08-29T16:20:24.099Z,23.03
2022-08-29T16:25:31.258Z,22.88
2022-08-29T16:30:44.251Z,22.71
2022-08-29T16:35:52.297Z,22.54
2022-08-29T16:41:05.054Z,22.34
2022-08-29T16:46:12.291Z,22.16
2022-08-29T16:51:19.001Z,22.01
2022-08-29T16:56:25.150Z,21.83
2022-08-29T17:01:33.254Z,21.65
2022-08-29T17:06:39.712Z,21.48
2022-08-29T17:11:45.991Z,21.31
2022-08-29T17:16:54.037Z,21.12
2022-08-29T17:22:00.014Z,20.94
2022-08-29T17:27:06.001Z,20.77
2022-08-29T17:32:24.126Z,20.65
2022-08-29T17:37:36.430Z,20.45
2022-08-29T17:43:16.504Z,20.26
2022-08-29T17:48:33.896Z,20.04
2022-08-29T17:53:45.828Z,19.81
2022-08-29T17:59:05.930Z,19.57
2022-08-29T18:04:20.668Z,19.34
2022-08-29T18:09:26.730Z,19.10
2022-08-29T18:14:33.654Z,18.86
2022-08-29T18:19:40.003Z,18.62
2022-08-29T18:24:48.934Z,18.47
2022-08-29T18:29:55.409Z,18.41
2022-08-29T18:50:36.462Z,18.37
2022-08-29T18:55:51.222Z,18.29
2022-08-29T19:00:59.560Z,18.27
2022-08-29T19:06:05.866Z,18.29
2022-08-29T19:11:11.881Z,18.37
2022-08-29T19:16:19.488Z,18.45
2022-08-29T19:21:26.188Z,18.50
2022-08-29T19:26:38.010Z,18.51
2022-08-29T19:31:46.363Z,18.50
2022-08-29T19:36:52.168Z,18.53
2022-08-29T19:41:58.245Z,18.59
2022-08-29T19:47:04.526Z,18.63
2022-08-29T19:52:10.918Z,18.63
2022-08-29T19:57:16.997Z,18.60
2022-08-29T20:02:22.960Z,18.56
2022-08-29T20:07:29.260Z,18.54
2022-08-29T20:12:37.942Z,18.53
2022-08-29T20:17:44.864Z,18.51
2022-08-29T20:22:51.377Z,18.46
2022-08-29T20:27:57.500Z,18.39
2022-08-29T20:33:04.674Z,18.33
2022-08-29T20:38:12.604Z,18.31
2022-08-29T20:43:19.662Z,18.27
2022-08-29T20:48:31.091Z,18.21
2022-08-29T20:53:38.562Z,18.16
2022-08-29T20:58:45.459Z,18.07
2022-08-29T21:04:10.385Z,18.00
2022-08-29T21:09:16.347Z,17.97
2022-08-29T21:14:22.847Z,17.93
2022-08-29T21:19:29.988Z,17.86
2022-08-29T21:24:36.131Z,17.79
2022-08-29T21:29:43.585Z,17.73
2022-08-29T21:34:49.546Z,17.73
2022-08-29T21:39:55.404Z,17.70
2022-08-29T21:45:01.725Z,17.64
2022-08-29T21:50:08.933Z,17.60
2022-08-29T21:55:15.721Z,17.58
2022-08-29T22:00:25.049Z,17.54
2022-08-29T22:05:31.639Z,17.47
2022-08-29T22:10:38.876Z,17.41
2022-08-29T22:16:03.995Z,17.37
2022-08-29T22:21:15.187Z,17.40
2022-08-29T22:26:21.890Z,17.34
2022-08-29T22:31:28.115Z,17.28
2022-08-29T22:36:34.876Z,17.20
2022-08-29T22:41:44.199Z,17.13
2022-08-29T22:46:54.014Z,17.11
2022-08-29T22:52:00.394Z,17.06
2022-08-29T22:57:09.089Z,16.98
2022-08-29T23:02:16.303Z,16.91
2022-08-29T23:07:22.283Z,16.87
2022-08-29T23:12:28.658Z,16.82
2022-08-29T23:17:34.552Z,16.79
2022-08-29T23:22:42.877Z,16.76
2022-08-29T23:27:48.949Z,16.74
2022-08-29T23:32:54.866Z,16.69
2022-08-29T23:38:00.722Z,16.62
2022-08-29T23:43:07.312Z,16.57
2022-08-29T23:48:13.283Z,16.56
2022-08-29T23:53:19.977Z,16.55
2022-08-29T23:58:25.779Z,16.53
